createdAt,value
2018-12-26T18:21:42.815Z,37.68
2018-12-26T18:24:13.634Z,37.68
2018-12-26T18:26:44.529Z,37.67
2018-12-26T18:29:16.314Z,37.64
2018-12-26T18:31:47.161Z,37.67
2018-12-26T18:34:18.052Z,37.63
2018-12-26T18:36:48.853Z,37.64
2018-12-26T18:39:19.927Z,37.61
2018-12-26T18:41:50.757Z,37.65
2018-12-26T18:44:21.665Z,37.57
2018-12-26T18:46:52.439Z,37.69
2018-12-26T18:49:23.264Z,37.78
2018-12-26T18:51:54.063Z,37.83
2018-12-26T18:54:24.968Z,37.84
2018-12-26T18:56:55.809Z,38.05
2018-12-26T18:59:26.622Z,38.12
2018-12-26T19:01:56.913Z,38.26
2018-12-26T19:04:27.253Z,38.26
2018-12-26T19:06:59.245Z,38.31
2018-12-26T19:09:30.196Z,38.26
2018-12-26T19:12:00.567Z,38.29
2018-12-26T19:14:31.465Z,38.37
2018-12-26T19:17:01.838Z,38.08
2018-12-26T19:19:32.844Z,38.22
2018-12-26T19:22:03.774Z,38.20
2018-12-26T19:24:34.819Z,38.15
2018-12-26T19:27:05.779Z,38.35
2018-12-26T19:29:36.731Z,38.30
2018-12-26T19:32:07.652Z,38.13
2018-12-26T19:34:38.111Z,38.16
2018-12-26T19:37:09.102Z,38.27
2018-12-26T19:39:40.012Z,38.17
2018-12-26T19:42:10.405Z,38.19
2018-12-26T19:44:38.690Z,38.12
2018-12-26T19:47:06.018Z,38.13
2018-12-26T19:49:33.305Z,38.11
2018-12-26T19:52:00.629Z,38.04
2018-12-26T19:54:27.929Z,38.10
2018-12-26T19:56:55.242Z,38.28
2018-12-26T19:59:22.692Z,38.09
2018-12-26T20:01:50.052Z,38.22
2018-12-26T20:04:17.520Z,38.11
2018-12-26T20:06:44.794Z,38.07
2018-12-26T20:09:12.202Z,38.14
2018-12-26T20:11:39.545Z,38.14
2018-12-26T20:14:06.939Z,38.16
2018-12-26T20:16:34.232Z,38.14
2018-12-26T20:19:01.483Z,38.11
2018-12-26T20:21:29.883Z,38.06
2018-12-26T20:23:57.202Z,38.13
2018-12-26T20:26:24.468Z,38.20
2018-12-26T20:28:51.820Z,38.22
2018-12-26T20:31:19.204Z,38.23
2018-12-26T20:33:46.532Z,38.20
2018-12-26T20:39:26.206Z,38.14
2018-12-26T20:41:53.552Z,38.20
2018-12-26T20:44:20.794Z,38.29
2018-12-26T20:46:48.083Z,38.08
2018-12-26T20:49:15.373Z,38.17
2018-12-26T20:51:42.742Z,38.20
2018-12-26T20:54:10.018Z,38.13
2018-12-26T20:56:37.860Z,38.19
2018-12-26T20:59:05.165Z,38.26
2018-12-26T21:01:32.553Z,38.21
2018-12-26T21:03:59.906Z,38.29
2018-12-26T21:06:27.205Z,38.24
2018-12-26T21:08:54.622Z,38.27
2018-12-26T21:11:22.220Z,38.34
2018-12-26T21:13:49.500Z,38.33
2018-12-26T21:16:16.901Z,38.27
2018-12-26T21:18:44.154Z,38.29
2018-12-26T21:21:11.493Z,38.32
2018-12-26T21:23:38.845Z,38.40
2018-12-26T21:26:06.127Z,38.33
2018-12-26T21:28:33.418Z,38.33
2018-12-26T21:31:00.841Z,38.35
2018-12-26T21:33:28.145Z,38.41
2018-12-26T21:35:55.564Z,38.43
2018-12-26T21:38:22.910Z,38.41
2018-12-26T21:40:50.235Z,38.38
2018-12-26T21:43:17.934Z,38.40
2018-12-26T21:45:45.221Z,38.40
2018-12-26T21:48:12.597Z,38.34
2018-12-26T21:50:39.949Z,38.38
2018-12-26T21:53:07.407Z,38.44
2018-12-26T21:55:34.764Z,38.42
2018-12-26T21:58:02.112Z,38.42
2018-12-26T22:00:29.458Z,38.42
2018-12-26T22:02:56.887Z,38.45
2018-12-26T22:05:24.350Z,38.44
2018-12-26T22:07:51.650Z,38.44
2018-12-26T22:10:18.930Z,38.48
2018-12-26T22:12:46.215Z,38.40
2018-12-26T22:15:14.571Z,38.49
2018-12-26T22:17:42.990Z,38.46
2018-12-26T22:20:10.248Z,38.52
2018-12-26T22:22:37.633Z,38.47
2018-12-26T22:25:05.150Z,36.22
2018-12-26T22:27:32.457Z,36.62
2018-12-26T22:29:59.869Z,37.41
2018-12-26T22:32:30.802Z,38.15
2018-12-26T22:34:56.403Z,37.56
2018-12-26T22:37:23.744Z,37.65
2018-12-26T22:39:51.076Z,37.78
2018-12-26T22:42:18.609Z,38.05
2018-12-26T22:44:46.117Z,38.16
2018-12-26T22:47:13.422Z,37.04
2018-12-26T22:49:40.673Z,36.05
2018-12-26T22:52:07.980Z,35.56
2018-12-26T22:54:35.387Z,35.62
2018-12-26T22:57:02.750Z,35.70
2018-12-26T22:59:30.336Z,35.90
2018-12-26T23:01:57.645Z,35.96
2018-12-26T23:04:24.964Z,36.22
2018-12-26T23:06:52.326Z,36.34
2018-12-26T23:09:19.641Z,36.71
2018-12-26T23:11:46.950Z,36.84
2018-12-26T23:14:14.393Z,36.93
2018-12-26T23:16:41.734Z,36.94
2018-12-26T23:19:09.236Z,37.06
2018-12-26T23:21:36.545Z,37.18
2018-12-26T23:24:03.821Z,37.37
2018-12-26T23:26:31.155Z,37.39
2018-12-26T23:28:58.384Z,37.46
2018-12-26T23:31:25.499Z,37.49
2018-12-26T23:33:52.763Z,37.55
2018-12-26T23:36:19.918Z,37.60
2018-12-26T23:38:47.084Z,37.56
2018-12-26T23:41:14.292Z,37.63
2018-12-26T23:43:41.674Z,37.59
2018-12-26T23:46:08.911Z,37.54
2018-12-26T23:48:36.120Z,37.61
2018-12-26T23:51:03.281Z,37.70
2018-12-26T23:53:30.810Z,37.75
2018-12-26T23:55:57.967Z,37.84
2018-12-26T23:58:25.134Z,37.81
